• Join FlightAware (Why Join?)
  • Login
  • US Flag 
09:05PM EDT


 

Airport Tracker/Info


-or-


 

Live Flight TrackerFlight Track Log ✈ SWA692 ✈ 04-Feb-2014 ✈ KALB - KFLL

Flight Track Log - Related Links

Times and Time Zones

All times are in EST time to prevent confusion due to time zone crossing. See the SWA692 flight status page for this flight to view local times or setup timezone preferences in your user account.

Time Position Orientation Groundspeed Altitude Reporting Facility
EST Latitude Longitude Course Direction KTS MPH feet Rate Location/Type
09:34AM 42.7681 -73.8058 342° North 152 175 1,500  Level Boston Center
09:35AM 42.8153 -73.8264 342° North 194 223 3,900 2,820 Climbing Boston Center
09:36AM 42.8492 -73.8889 306° West 205 236 7,300 3,300 Climbing Boston Center
09:37AM 42.8858 -73.9481 310° West 204 235 10,700 3,240 Climbing Boston Center
09:38AM 42.8911 -74.0119 276° West 194 223 13,900 3,060 Climbing Boston Center
09:39AM 42.8608 -74.0819 239° Southwest 199 229 16,900 1,860 Climbing Boston Center
09:40AM 42.7769 -74.0800 179° South 321 369 17,700 1,200 Climbing Boston Center
09:41AM 42.6831 -74.0289 158° South 395 455 19,400 2,160 Climbing Boston Center
09:42AM 42.5778 -73.9756 160° South 403 464 22,100 2,400 Climbing Boston Center
09:43AM 42.4700 -73.9217 160° South 411 473 24,300 1,920 Climbing Boston Center
09:44AM 42.3542 -73.8664 161° South 424 488 26,100 1,620 Climbing Boston Center
09:45AM 42.2436 -73.8908 189° South 414 476 27,600 1,680 Climbing Boston Center
09:46AM 42.1167 -73.9461 198° South 404 465 29,600 2,040 Climbing Boston Center
09:47AM 42.0092 -73.9933 198° South 401 461 31,900 1,860 Climbing Boston Center
09:48AM 41.9083 -74.0367 198° South 394 453 33,400 1,440 Climbing Boston Center
09:49AM 41.8044 -74.0817 198° South 393 452 34,900 1,380 Climbing Boston Center
09:50AM 41.6992 -74.1267 198° South 392 451 36,200 1,260 Climbing Boston Center
09:51AM 41.5964 -74.1703 198° South 391 450 37,500 840 Climbing Boston Center
09:52AM 41.4933 -74.2133 197° South 390 449 38,000 240 Climbing Boston Center
09:53AM 41.3900 -74.2578 198° South 389 448 38,000  Level Boston Center
09:54AM 41.3281 -74.2853 198° South 395 455 38,000  Level New York Center
09:55AM 41.2142 -74.3289 196° South 395 455 38,000  Level New York Center
09:56AM 41.1108 -74.3703 197° South 390 449 38,000  Level New York Center
09:57AM 41.0094 -74.4144 198° South 390 449 38,000  Level New York Center
09:58AM 40.9083 -74.4583 198° South 390 449 38,000  Level New York Center
09:59AM 40.8069 -74.5022 198° South 390 449 38,000  Level New York Center
10:00AM 40.7014 -74.5431 196° South 390 449 38,000  Level New York Center
10:01AM 40.6000 -74.5839 197° South 390 449 38,000  Level New York Center
10:02AM 40.4986 -74.6275 198° South 390 449 38,000  Level New York Center
10:04AM 40.2789 -74.7158 197° South 388 447 38,000  Level Washington Center
10:05AM 40.1772 -74.7581 198° South 388 447 38,000  Level Washington Center
10:06AM 40.0756 -74.8025 198° South 388 447 38,000  Level Washington Center
10:07AM 39.9611 -74.8497 198° South 388 447 38,000  Level Washington Center
10:08AM 39.8594 -74.8886 196° South 388 447 38,000  Level Washington Center
10:09AM 39.7556 -74.9331 198° South 388 447 38,000  Level Washington Center
10:10AM 39.6494 -74.9717 196° South 393 452 38,000  Level Washington Center
10:11AM 39.5475 -75.0156 198° South 399 459 38,000  Level Washington Center
10:12AM 39.4414 -75.0567 197° South 399 459 38,000  Level Washington Center
10:13AM 39.3394 -75.0978 197° South 399 459 38,000  Level Washington Center
10:14AM 39.2356 -75.1414 198° South 399 459 38,000  Level Washington Center
10:15AM 39.1336 -75.1850 198° South 399 459 38,000  Level Washington Center
10:16AM 39.0294 -75.2228 196° South 399 459 38,000  Level Washington Center
10:17AM 38.9275 -75.2714 200° South 399 459 38,000  Level Washington Center
10:18AM 38.8253 -75.3197 200° South 399 459 38,000  Level Washington Center
10:19AM 38.7233 -75.3603 197° South 394 453 38,000  Level Washington Center
10:20AM 38.6192 -75.4003 197° South 394 453 38,000  Level Washington Center
10:21AM 38.5192 -75.4378 196° South 394 453 38,000  Level Washington Center
10:22AM 38.4150 -75.4831 199° South 389 448 38,000  Level Washington Center
10:23AM 38.3150 -75.5283 200° South 389 448 38,000  Level Washington Center
10:24AM 38.2086 -75.5733 198° South 389 448 38,000  Level Washington Center
10:25AM 38.1147 -75.6314 206° Southwest 384 442 38,000  Level Washington Center
10:26AM 38.0250 -75.6972 210° Southwest 377 434 38,000  Level Washington Center
10:27AM 37.9311 -75.7550 206° Southwest 377 434 38,000  Level Washington Center
10:28AM 37.8350 -75.8153 206° Southwest 382 440 38,000  Level Washington Center
10:29AM 37.7411 -75.8728 206° Southwest 382 440 38,000  Level Washington Center
10:30AM 37.6472 -75.9300 206° Southwest 382 440 38,000  Level Washington Center
10:31AM 37.5489 -75.9925 207° Southwest 389 448 38,000  Level Washington Center
10:32AM 37.4547 -76.0497 206° Southwest 389 448 38,000  Level Washington Center
10:33AM 37.3567 -76.1092 206° Southwest 389 448 38,000  Level Washington Center
10:34AM 37.2603 -76.1686 206° Southwest 389 448 38,000  Level Washington Center
10:35AM 37.1994 -76.2644 231° Southwest 358 412 38,000  Level Washington Center
10:36AM 37.1569 -76.3711 243° Southwest 348 400 38,000  Level Washington Center
10:37AM 37.1167 -76.4828 246° West 353 406 38,000  Level Washington Center
10:38AM 37.0739 -76.5942 244° Southwest 353 406 38,000  Level Washington Center
10:39AM 37.0231 -76.7000 239° Southwest 353 406 38,000  Level Washington Center
10:40AM 36.9203 -76.7428 198° South 354 407 38,000  Level Washington Center
10:41AM 36.8156 -76.7853 198° South 366 421 38,000  Level Washington Center
10:42AM 36.7089 -76.8253 197° South 388 447 38,000  Level Washington Center
10:43AM 36.6042 -76.8650 197° South 398 458 38,000  Level Washington Center
10:44AM 36.4972 -76.9044 197° South 403 464 38,000  Level Washington Center
10:45AM 36.3906 -76.9467 198° South 403 464 38,000  Level Washington Center
10:46AM 36.2814 -76.9858 196° South 403 464 38,000  Level Washington Center
10:47AM 36.1747 -77.0253 197° South 403 464 38,000  Level Washington Center
10:48AM 36.0678 -77.0619 195° South 403 464 38,000  Level Washington Center
10:49AM 35.9608 -77.1008 196° South 403 464 38,000  Level Washington Center
10:50AM 35.8581 -77.1375 196° South 398 458 38,000  Level Washington Center
10:51AM 35.7492 -77.1761 196° South 398 458 38,000  Level Washington Center
10:52AM 35.6400 -77.2200 198° South 403 464 38,000  Level Washington Center
10:53AM 35.5289 -77.2561 195° South 403 464 38,000  Level Washington Center
10:54AM 35.4367 -77.2925 198° South 403 464 38,000  Level Washington Center
10:55AM 35.3256 -77.3333 197° South 403 464 38,000  Level Washington Center
10:56AM 35.2144 -77.3717 196° South 403 464 38,000  Level Washington Center
10:57AM 35.1075 -77.4072 195° South 403 464 38,000  Level Washington Center
10:58AM 34.9961 -77.4506 198° South 408 470 38,000  Level Washington Center
10:59AM 34.8872 -77.4861 195° South 408 470 38,000  Level Washington Center
11:00AM 34.7653 -77.5336 198° South 408 470 38,000  Level Washington Center
11:01AM 34.6561 -77.5742 197° South 408 470 38,000  Level Washington Center
11:02AM 34.5469 -77.6117 196° South 413 475 38,000  Level Washington Center
11:03AM 34.4358 -77.6494 196° South 413 475 38,000  Level Washington Center
11:04AM 34.3244 -77.6892 196° South 418 481 38,000  Level Washington Center
11:05AM 34.1344 -77.7522 195° South 418 481 38,000  Level Jacksonville Center
11:06AM 34.0233 -77.7914 196° South 418 481 38,000  Level Jacksonville Center
11:07AM 33.9122 -77.8303 196° South 423 487 38,000  Level Jacksonville Center
11:08AM 33.8011 -77.8692 196° South 425 489 38,000  Level Jacksonville Center
11:09AM 33.6878 -77.9056 195° South 425 489 38,000  Level Jacksonville Center
11:10AM 33.5747 -77.9469 197° South 425 489 38,000  Level Jacksonville Center
11:11AM 33.4656 -77.9856 196° South 420 483 38,000  Level Jacksonville Center
11:12AM 33.3542 -78.0214 195° South 415 478 38,000  Level Jacksonville Center
11:13AM 33.2431 -78.0622 197° South 415 478 38,000  Level Jacksonville Center
11:14AM 33.1300 -78.1031 197° South 415 478 38,000  Level Jacksonville Center
11:15AM 33.0186 -78.1389 195° South 415 478 38,000  Level Jacksonville Center
11:17AM 32.9072 -78.1744 195° South 415 478 38,000  Level Jacksonville Center
11:17AM 32.7939 -78.2125 196° South 415 478 38,000  Level Jacksonville Center
11:18AM 32.6847 -78.2550 198° South 415 478 38,000  Level Jacksonville Center
11:19AM 32.5711 -78.2881 194° South 415 478 38,000  Level Jacksonville Center
11:20AM 32.4578 -78.3258 196° South 415 478 38,000  Level Jacksonville Center
11:21AM 32.3444 -78.3633 196° South 415 478 38,000  Level Jacksonville Center
11:22AM 32.2331 -78.4033 197° South 415 478 38,000  Level Jacksonville Center
11:23AM 32.1217 -78.4406 196° South 414 476 38,000  Level Jacksonville Center
11:24AM 32.0081 -78.4781 196° South 414 476 38,000  Level Jacksonville Center
11:25AM 31.8967 -78.5150 196° South 414 476 38,000  Level Jacksonville Center
11:27AM 31.7833 -78.5547 197° South 414 476 38,000  Level Jacksonville Center
11:27AM 31.6719 -78.5917 196° South 414 476 38,000  Level Jacksonville Center
11:28AM 31.5583 -78.6286 195° South 414 476 38,000  Level Jacksonville Center
11:29AM 31.4467 -78.6628 195° South 414 476 38,000  Level Jacksonville Center
11:30AM 31.3311 -78.7047 197° South 424 488 38,000  Level Jacksonville Center
11:31AM 31.2156 -78.7389 194° South 429 494 38,000  Level Jacksonville Center
11:32AM 31.1017 -78.7756 195° South 434 499 38,000  Level Jacksonville Center
11:33AM 30.9819 -78.8122 195° South 434 499 38,000  Level Jacksonville Center
11:34AM 30.8725 -78.8508 197° South 429 494 38,000  Level Jacksonville Center
11:35AM 30.7569 -78.8894 196° South 429 494 38,000  Level Jacksonville Center
11:36AM 30.6411 -78.9258 195° South 436 502 38,000  Level Jacksonville Center
11:38AM 30.4961 -78.9711 195° South 400 460 38,000  Level Miami Center
11:39AM 30.3789 -79.0072 195° South 416 479 38,000  Level Miami Center
11:40AM 30.2658 -79.0364 193° South 416 479 38,000  Level Miami Center
11:41AM 30.1506 -79.0675 193° South 426 490 38,000  Level Miami Center
11:42AM 30.0333 -79.0986 193° South 436 502 38,000  Level Miami Center
11:43AM 29.9161 -79.1322 194° South 429 494 38,000  Level Miami Center
11:44AM 29.8031 -79.1656 194° South 429 494 38,000  Level Miami Center
11:45AM 29.6836 -79.1942 192° South 429 494 38,000  Level Miami Center
11:46AM 29.5667 -79.2178 190° South 432 497 38,000  Level Miami Center
11:47AM 29.4533 -79.2511 194° South 432 497 38,000  Level Miami Center
11:48AM 29.3342 -79.2747 190° South 426 490 38,000  Level Miami Center
11:49AM 29.2269 -79.3103 196° South 426 490 38,000 -240 Level Miami Center
11:50AM 29.1056 -79.3361 191° South 431 496 37,600 -660 Descending Miami Center
11:51AM 28.9883 -79.3644 192° South 431 496 36,700 -960 Descending Miami Center
11:52AM 28.8708 -79.3925 192° South 431 496 35,700 -1,020 Descending Miami Center
11:53AM 28.7536 -79.4231 193° South 431 496 34,700 -900 Descending Miami Center
11:54AM 28.6342 -79.4533 193° South 431 496 34,000 -360 Descending Miami Center
11:55AM 28.5147 -79.4814 192° South 431 496 34,000  Level Miami Center
11:56AM 28.3950 -79.5139 193° South 431 496 34,000  Level Miami Center
11:57AM 28.2756 -79.5417 192° South 431 496 34,000  Level Miami Center
11:58AM 28.1561 -79.5719 193° South 431 496 34,000  Level Miami Center
11:59AM 28.0344 -79.5994 191° South 437 503 34,000  Level Miami Center
12:00PM 27.9128 -79.6294 192° South 437 503 34,000  Level Miami Center
12:01PM 27.8078 -79.6553 192° South 437 503 34,000 -480 Level Miami Center
12:02PM 27.6778 -79.6872 192° South 437 503 33,100 -1,380 Descending Miami Center
12:03PM 27.5542 -79.7053 187° South 436 502 31,300 -1,680 Descending Miami Center
12:04PM 27.4289 -79.7044 180° South 451 519 29,800 -2,340 Descending Miami Center
12:05PM 27.3164 -79.6992 178° South 456 525 26,700 -3,120 Descending Miami Center
12:06PM 27.1786 -79.6936 178° South 456 525 23,600 -2,820 Descending Miami Center
12:07PM 27.0617 -79.6931 180° South 437 503 21,100 -2,460 Descending Miami Center
12:08PM 26.9511 -79.6881 178° South 415 478 18,700 -2,400 Descending Miami Center
12:09PM 26.8508 -79.6881 180° South 402 463 16,300 -2,580 Descending Miami Center
12:10PM 26.7422 -79.6922 182° South 377 434 13,800 -2,520 Descending Miami Center
12:10PM 26.7442 -79.6922 360° North 397 457 13,800 -2,580 Level Miami Center
12:11PM 26.6600 -79.7297 202° Southwest 369 425 11,700 -2,700 Descending Miami Center
12:11PM 26.6389 -79.7364 196° South 373 429 11,100 -2,400 Descending Miami Center
12:12PM 26.5672 -79.7742 205° Southwest 360 414 9,300 -2,220 Descending Miami Center
12:12PM 26.5567 -79.7761 189° South 367 422 8,900 -1,140 Descending Miami Center
12:13PM 26.4872 -79.8117 205° Southwest 322 371 8,300 -840 Descending Miami Center
12:13PM 26.4661 -79.8203 200° South 338 389 8,100 -300 Descending Miami Center
12:14PM 26.4153 -79.8469 205° Southwest 275 316 8,000 -120 Descending Miami Center
12:14PM 26.4006 -79.8511 194° South 301 346 8,000 -420 Level Miami Center
12:15PM 26.3456 -79.8939 215° Southwest 267 307 7,600 -840 Descending Miami Center
12:15PM 26.3347 -79.9050 223° Southwest 282 325 7,200 -1,680 Descending Miami Center
12:16PM 26.2922 -79.9481 222° Southwest 280 322 6,100 -1,200 Descending Miami Center
12:16PM 26.2814 -79.9569 216° Southwest 282 325 6,000 -120 Descending Miami Center
12:17PM 26.2325 -80.0044 221° Southwest 279 321 6,000  Level Miami Center
12:17PM 26.2239 -80.0111 215° Southwest 282 325 6,000  Level Miami Center
12:18PM 26.1769 -80.0631 225° Southwest 280 322 6,000  Level Miami Center
12:18PM 26.1744 -80.0744 256° West 282 325 6,000  Level Miami Center
12:18PM 26.1544 -80.1342 250° West 246 283 6,000  Level Miami Center
12:19PM 26.1519 -80.1503 260° West 266 306 6,000 -840 Level Miami Center
12:20PM 26.1483 -80.2197 267° West 249 287 5,100 -1,080 Descending Miami Center
12:21PM 26.1467 -80.2867 268° West 242 278 4,200 -1,200 Descending Miami Center
12:22PM 26.1122 -80.3367 233° Southwest 197 227 2,700 -1,140 Descending Miami Center
12:23PM 26.0772 -80.3056 141° Southeast 180 207 2,000 -660 Descending Miami Center
12:24PM 26.0744 -80.2522 93° East 172 198 1,500 -660 Descending Miami Center
12:25PM 26.0756 -80.2061 88° East 133 153 700 -720 Descending Miami Center
12:27PM 26.0667 -80.1500 103° East  Level FlightAware Approximate
12:34PM 26.0726 -80.1527 103° East  Level Estimated